Time;durP1;ratioP1;P1;durP2;ratioP2;P2;SDS_P1;SDS_P2;PMS_P1;PMS_P2;Temp;Humidity;BMP_temperature;BMP_pressure;BME280_temperature;BME280_humidity;BME280_pressure;Samples;Min_cycle;Max_cycle;Signal;HPM_P1;HPM_P2
2021/05/11 00:00:00;;;;;;;5.46;2.53;;;;;;;12.09;33.23;99948.98;308070;122;1962009;-72
2021/05/11 00:01:06;;;;;;;5.59;2.58;;;;;;;12.13;33.15;99959.39;321988;121;1962038;-73
2021/05/11 00:02:12;;;;;;;6.85;3.14;;;;;;;12.15;33.07;99951.91;334138;119;1962036;-72
2021/05/11 00:03:17;;;;;;;6.61;3.07;;;;;;;12.15;32.81;99950.02;333542;119;1962041;-73
2021/05/11 00:04:23;;;;;;;6.43;2.89;;;;;;;12.17;32.90;99952.50;334491;120;1962929;-73
2021/05/11 00:05:30;;;;;;;5.29;2.47;;;;;;;12.17;32.76;99955.20;288309;119;2848018;-72
2021/05/11 00:06:36;;;;;;;6.40;2.20;;;;;;;12.20;32.75;99960.20;333670;120;1962867;-72
2021/05/11 00:07:42;;;;;;;5.64;2.43;;;;;;;12.20;32.78;99952.08;333563;120;1962926;-72
2021/05/11 00:08:48;;;;;;;5.21;2.65;;;;;;;12.20;32.85;99961.06;334189;119;1961861;-71
2021/05/11 00:09:54;;;;;;;6.90;3.13;;;;;;;12.21;32.81;99957.30;288158;120;2853983;-72
2021/05/11 00:10:59;;;;;;;5.68;2.69;;;;;;;12.24;33.00;99956.05;313122;120;1962015;-71
2021/05/11 00:12:06;;;;;;;5.11;2.80;;;;;;;12.23;32.89;99951.69;329196;121;1962142;-71
2021/05/11 00:13:11;;;;;;;7.65;3.00;;;;;;;12.23;33.00;99948.98;328788;121;1963052;-71
2021/05/11 00:14:17;;;;;;;5.84;2.69;;;;;;;12.22;33.00;99947.29;333993;120;1964100;-72
2021/05/11 00:15:24;;;;;;;6.37;2.97;;;;;;;12.24;33.03;99939.80;335918;119;1962032;-73
2021/05/11 00:16:30;;;;;;;5.81;3.08;;;;;;;12.24;33.05;99945.21;324515;119;1962926;-72
2021/05/11 00:17:36;;;;;;;6.10;3.11;;;;;;;12.25;33.05;99938.73;331491;119;1961986;-72
2021/05/11 00:18:41;;;;;;;6.44;3.04;;;;;;;12.25;33.16;99938.73;333459;119;1963002;-72
2021/05/11 00:19:47;;;;;;;7.92;3.98;;;;;;;12.23;33.30;99946.27;333470;119;1962044;-72
2021/05/11 00:20:53;;;;;;;8.34;4.05;;;;;;;12.20;33.46;99941.24;304300;119;2503954;-71
2021/05/11 00:21:59;;;;;;;7.40;3.40;;;;;;;12.18;33.55;99937.94;323077;119;1965933;-71
2021/05/11 00:23:04;;;;;;;7.11;3.40;;;;;;;12.16;33.85;99934.59;332875;119;1964023;-71
2021/05/11 00:24:10;;;;;;;8.83;3.54;;;;;;;12.15;33.72;99933.77;334037;119;1964030;-71
2021/05/11 00:25:16;;;;;;;6.53;3.01;;;;;;;12.15;33.65;99939.19;335746;119;1961982;-72
2021/05/11 00:26:23;;;;;;;7.43;3.22;;;;;;;12.16;33.65;99937.30;306822;120;2453937;-72
2021/05/11 00:27:28;;;;;;;6.66;2.85;;;;;;;12.14;33.73;99932.09;305815;120;1961930;-72
2021/05/11 00:28:39;;;;;;;7.30;3.25;;;;;;;12.13;33.68;99940.44;332991;119;1965043;-72
2021/05/11 00:29:45;;;;;;;7.34;2.76;;;;;;;12.13;33.61;99930.44;334193;119;1961972;-71
2021/05/11 00:30:50;;;;;;;5.21;2.76;;;;;;;12.14;33.51;99932.09;334043;120;1961912;-71
2021/05/11 00:31:55;;;;;;;7.44;3.54;;;;;;;12.14;33.78;99929.38;332862;119;1962029;-71
2021/05/11 00:33:01;;;;;;;6.75;3.08;;;;;;;12.13;33.73;99933.14;335525;119;1962023;-71
2021/05/11 00:34:07;;;;;;;7.73;3.22;;;;;;;12.12;33.96;99927.92;308599;121;2423041;-71
2021/05/11 00:35:13;;;;;;;5.97;3.26;;;;;;;12.09;34.38;99930.03;314693;120;1961891;-71
2021/05/11 00:36:20;;;;;;;7.07;3.03;;;;;;;12.07;34.28;99925.86;334186;120;1962483;-70
2021/05/11 00:37:26;;;;;;;7.48;3.96;;;;;;;12.05;34.82;99927.94;333313;119;1965042;-72
2021/05/11 00:38:32;;;;;;;10.89;3.83;;;;;;;12.04;34.71;99926.26;290668;119;2804967;-73
2021/05/11 00:39:37;;;;;;;8.56;3.84;;;;;;;12.01;34.79;99927.53;301998;119;1962081;-71
2021/05/11 00:40:44;;;;;;;8.20;4.38;;;;;;;11.96;34.96;99924.63;334054;120;1962950;-73
2021/05/11 00:41:49;;;;;;;5.95;3.24;;;;;;;11.93;35.11;99919.59;333113;120;1962036;-72
2021/05/11 00:42:56;;;;;;;6.47;3.31;;;;;;;11.91;35.11;99927.12;332304;119;1961915;-71
2021/05/11 00:44:05;;;;;;;6.94;3.21;;;;;;;11.88;35.29;99928.37;298147;119;2632968;-72
2021/05/11 00:45:12;;;;;;;9.30;3.98;;;;;;;11.85;35.20;99926.05;287954;119;2809973;-72
2021/05/11 00:46:18;;;;;;;6.89;3.18;;;;;;;11.84;35.34;99920.83;334538;119;1964938;-71
2021/05/11 00:47:25;;;;;;;7.22;3.04;;;;;;;11.83;35.29;99925.41;334353;119;1961120;-71
2021/05/11 00:48:31;;;;;;;6.66;3.27;;;;;;;11.83;35.19;99920.00;307479;122;2334818;-73
2021/05/11 00:49:38;;;;;;;8.76;3.88;;;;;;;11.82;35.31;99920.20;319313;123;1962037;-72
2021/05/11 00:50:44;;;;;;;7.66;3.78;;;;;;;11.81;35.52;99922.08;329976;121;1961115;-72
2021/05/11 00:51:51;;;;;;;7.60;3.51;;;;;;;11.80;35.53;99916.86;333558;120;1961944;-72
2021/05/11 00:52:57;;;;;;;8.14;3.89;;;;;;;11.78;35.61;99918.97;319479;120;1963069;-71
2021/05/11 00:54:02;;;;;;;10.44;3.57;;;;;;;11.76;35.64;99915.63;332088;122;1962028;-72
2021/05/11 00:55:09;;;;;;;7.37;3.98;;;;;;;11.73;35.70;99914.16;333431;120;1961007;-72
2021/05/11 00:56:16;;;;;;;6.83;3.76;;;;;;;11.73;36.07;99921.45;333122;119;1962014;-71
2021/05/11 00:57:22;;;;;;;7.47;3.72;;;;;;;11.69;36.03;99918.31;327600;119;1961903;-71
2021/05/11 00:58:28;;;;;;;7.89;3.51;;;;;;;11.66;36.14;99918.73;333219;120;1962998;-71
2021/05/11 00:59:33;;;;;;;7.75;3.16;;;;;;;11.64;36.33;99918.95;333196;120;1962001;-71
2021/05/11 01:00:39;;;;;;;7.79;3.59;;;;;;;11.63;36.34;99916.44;332839;119;1963995;-71
2021/05/11 01:01:46;;;;;;;6.97;3.52;;;;;;;11.61;36.56;99910.40;304982;119;2500922;-70
2021/05/11 01:02:51;;;;;;;7.67;3.85;;;;;;;11.60;36.47;99920.39;319721;119;1962954;-73
2021/05/11 01:03:57;;;;;;;7.33;3.89;;;;;;;11.58;36.73;99916.23;331720;119;1963991;-71
2021/05/11 01:05:04;;;;;;;8.11;3.98;;;;;;;11.53;36.87;99911.42;333935;119;1962025;-71
2021/05/11 01:06:10;;;;;;;9.88;4.44;;;;;;;11.50;37.13;99911.84;292790;119;2759018;-72
2021/05/11 01:07:16;;;;;;;9.62;3.97;;;;;;;11.49;37.21;99914.77;309852;119;1961981;-71
2021/05/11 01:08:22;;;;;;;8.74;3.99;;;;;;;11.45;37.45;99919.73;333989;119;1965030;-72
2021/05/11 01:09:27;;;;;;;9.95;4.37;;;;;;;11.42;37.55;99917.45;333291;120;1962038;-72
2021/05/11 01:10:34;;;;;;;8.60;3.96;;;;;;;11.38;37.71;99914.33;331857;119;1961877;-71
2021/05/11 01:11:40;;;;;;;9.47;4.59;;;;;;;11.34;37.82;99918.47;296528;120;2679914;-71
2021/05/11 01:12:45;;;;;;;8.28;4.33;;;;;;;11.32;37.90;99915.13;333013;119;1963963;-72
2021/05/11 01:13:51;;;;;;;8.74;4.44;;;;;;;11.30;37.97;99917.23;332425;120;1962153;-71
2021/05/11 01:14:56;;;;;;;7.79;3.87;;;;;;;11.28;38.08;99921.18;326532;121;1964040;-71
2021/05/11 01:16:04;;;;;;;9.64;4.24;;;;;;;11.27;37.95;99914.08;328737;121;1962891;-73
2021/05/11 01:17:16;;;;;;;8.07;4.13;;;;;;;11.26;38.04;99918.66;302219;119;1962986;-73
2021/05/11 01:18:26;;;;;;;7.16;4.06;;;;;;;11.26;38.08;99907.84;309432;119;2914056;-72
2021/05/11 01:19:48;;;;;;;6.60;3.53;;;;;;;11.26;37.84;99907.84;333646;120;1961976;-71
2021/05/11 01:20:57;;;;;;;8.01;3.66;;;;;;;11.28;37.84;99913.89;299416;119;2624002;-72
2021/05/11 01:22:27;;;;;;;7.76;3.58;;;;;;;11.28;37.80;99908.48;332593;119;1962721;-72
2021/05/11 01:24:38;;;;;;;8.89;3.88;;;;;;;11.31;37.86;99907.24;313975;129;1960921;-72
2021/05/11 01:25:44;;;;;;;8.00;3.79;;;;;;;11.33;37.70;99903.30;321120;120;1960844;-72
2021/05/11 01:27:08;;;;;;;7.51;3.77;;;;;;;11.36;37.62;99910.17;334514;119;1960975;-72
2021/05/11 01:29:42;;;;;;;6.53;3.48;;;;;;;11.37;37.67;99904.53;332621;120;1960913;-73
2021/05/11 01:47:16;;;;;;;15.46;7.85;;;;;;;10.99;40.90;99902.36;311151;128;1962042;-72
2021/05/11 01:50:02;;;;;;;15.20;7.30;;;;;;;10.90;40.94;99900.89;332868;120;1962024;-72
2021/05/11 01:56:01;;;;;;;9.08;4.74;;;;;;;10.73;41.51;99910.37;287161;120;2857996;-71
2021/05/11 01:58:47;;;;;;;11.22;5.34;;;;;;;10.70;41.37;99908.91;333000;120;1962900;-71
2021/05/11 02:11:06;;;;;;;12.50;5.81;;;;;;;10.55;42.36;99905.50;333544;120;1962053;-71
2021/05/11 02:17:59;;;;;;;8.08;3.99;;;;;;;10.54;42.80;99910.07;330969;120;1963931;-71
2021/05/11 02:22:40;;;;;;;13.44;7.54;;;;;;;10.47;44.04;99911.89;338964;119;1961837;-72
2021/05/11 02:23:42;;;;;;;15.95;8.14;;;;;;;10.44;44.00;99906.89;341985;117;1962969;-70
2021/05/11 02:24:48;;;;;;;13.48;7.11;;;;;;;10.38;44.29;99912.27;341265;118;1962941;-71
2021/05/11 02:25:53;;;;;;;16.48;7.70;;;;;;;10.36;44.20;99911.63;341667;119;1961939;-72
2021/05/11 02:26:59;;;;;;;11.69;6.92;;;;;;;10.29;44.46;99912.43;340879;119;1961917;-71
2021/05/11 02:28:05;;;;;;;11.54;6.74;;;;;;;10.29;44.61;99911.57;339587;118;1961994;-72
2021/05/11 02:29:11;;;;;;;8.52;4.59;;;;;;;10.29;44.46;99912.43;303891;117;2661057;-72
2021/05/11 02:30:17;;;;;;;10.57;5.68;;;;;;;10.31;44.42;99906.81;339889;119;1961946;-72
2021/05/11 02:31:23;;;;;;;13.07;5.81;;;;;;;10.33;44.22;99910.98;340398;118;1962913;-72
2021/05/11 02:32:28;;;;;;;11.47;6.51;;;;;;;10.37;44.25;99911.41;339887;119;1964951;-72
2021/05/11 02:33:34;;;;;;;14.50;6.01;;;;;;;10.40;44.30;99908.34;340782;117;1961964;-70
2021/05/11 02:34:40;;;;;;;11.25;5.54;;;;;;;10.42;44.17;99911.66;292473;119;2816001;-69
2021/05/11 02:35:46;;;;;;;9.83;5.22;;;;;;;10.42;44.19;99910.83;327557;120;1961941;-71
2021/05/11 02:36:51;;;;;;;9.81;5.08;;;;;;;10.43;44.23;99907.11;340569;118;1962007;-69
2021/05/11 02:37:57;;;;;;;8.61;4.82;;;;;;;10.44;44.28;99911.47;338278;117;1962032;-70
2021/05/11 02:39:03;;;;;;;9.88;4.86;;;;;;;10.44;44.29;99914.99;340200;119;1962018;-70
2021/05/11 02:40:10;;;;;;;14.52;5.75;;;;;;;10.47;44.33;99905.66;339573;119;1962011;-70
2021/05/11 02:41:16;;;;;;;8.98;4.84;;;;;;;10.47;44.32;99911.06;339590;118;1961982;-71
2021/05/11 02:42:21;;;;;;;11.77;6.24;;;;;;;10.48;44.41;99910.88;332100;122;1961987;-70
2021/05/11 02:43:34;;;;;;;13.00;5.98;;;;;;;10.51;44.64;99923.15;334483;120;1963025;-73
2021/05/11 02:44:44;;;;;;;10.52;5.47;;;;;;;10.52;44.56;99916.70;338278;118;1965321;-73
2021/05/11 02:45:45;;;;;;;12.82;6.11;;;;;;;10.52;44.64;99912.13;339755;118;1964951;-73
2021/05/11 02:46:50;;;;;;;11.31;5.44;;;;;;;10.54;44.75;99909.24;341209;118;1961987;-71
2021/05/11 02:47:57;;;;;;;14.18;6.27;;;;;;;10.55;44.68;99911.72;339041;117;1961985;-71
2021/05/11 02:49:03;;;;;;;10.98;5.51;;;;;;;10.56;44.68;99917.98;298663;117;2764987;-72
2021/05/11 02:50:09;;;;;;;16.11;5.73;;;;;;;10.58;44.82;99912.37;331178;119;1962003;-72
2021/05/11 02:51:14;;;;;;;11.27;5.68;;;;;;;10.59;44.92;99914.88;341599;119;1962813;-73
2021/05/11 02:52:20;;;;;;;11.30;6.02;;;;;;;10.61;44.81;99915.52;341375;119;1961905;-73
2021/05/11 02:53:25;;;;;;;11.40;5.48;;;;;;;10.63;45.09;99912.60;338610;117;1964006;-72
2021/05/11 02:54:31;;;;;;;10.47;5.73;;;;;;;10.64;45.59;99919.66;340879;118;1962004;-69
2021/05/11 02:55:37;;;;;;;12.36;6.68;;;;;;;10.64;45.20;99908.86;299673;118;2748322;-71
2021/05/11 02:56:42;;;;;;;10.42;5.23;;;;;;;10.66;45.85;99917.59;316826;119;1961949;-72
2021/05/11 02:57:49;;;;;;;10.62;5.02;;;;;;;10.66;45.32;99920.30;340232;119;1962953;-72
2021/05/11 02:58:55;;;;;;;9.88;5.22;;;;;;;10.67;45.32;99919.29;341104;117;1963021;-72
2021/05/11 03:00:00;;;;;;;10.18;4.75;;;;;;;10.69;45.52;99911.79;339574;119;1962011;-71
2021/05/11 03:01:06;;;;;;;8.36;3.53;;;;;;;10.72;45.22;99916.82;298805;118;2736958;-71
2021/05/11 03:02:12;;;;;;;11.13;4.89;;;;;;;10.77;45.03;99917.05;322526;118;1962084;-72
2021/05/11 03:03:17;;;;;;;9.77;4.14;;;;;;;10.81;44.77;99918.30;338163;118;1962028;-71
2021/05/11 03:04:25;;;;;;;9.79;5.34;;;;;;;10.87;44.55;99913.95;340596;118;1962974;-71
2021/05/11 03:05:31;;;;;;;11.03;4.61;;;;;;;10.91;44.30;99912.53;313975;118;2448949;-72
2021/05/11 03:06:37;;;;;;;8.77;3.83;;;;;;;10.95;44.20;99911.08;339504;119;1961989;-71
2021/05/11 03:07:43;;;;;;;10.52;3.93;;;;;;;10.99;43.88;99912.34;337234;119;1961931;-72
2021/05/11 03:08:50;;;;;;;10.02;4.56;;;;;;;11.03;43.81;99907.36;334208;119;1962030;-71
2021/05/11 03:09:55;;;;;;;9.53;4.25;;;;;;;11.07;43.86;99906.77;310377;118;2526983;-73
2021/05/11 03:11:01;;;;;;;8.61;4.72;;;;;;;11.10;43.47;99905.52;338351;119;1961987;-72
2021/05/11 03:12:08;;;;;;;8.71;4.49;;;;;;;11.14;43.51;99909.47;340215;118;1961745;-72
2021/05/11 03:13:13;;;;;;;10.06;4.59;;;;;;;11.15;43.83;99905.75;340852;118;1962018;-71
2021/05/11 03:14:19;;;;;;;10.68;5.53;;;;;;;11.16;43.67;99908.23;339622;117;1961992;-72
2021/05/11 03:15:25;;;;;;;15.02;6.01;;;;;;;11.17;43.96;99904.50;310863;119;2528959;-71
2021/05/11 03:16:34;;;;;;;13.86;6.22;;;;;;;11.19;43.82;99901.58;336071;118;1962030;-72
2021/05/11 03:17:41;;;;;;;13.78;6.35;;;;;;;11.22;44.09;99895.79;305634;118;1972162;-71
2021/05/11 03:18:46;;;;;;;14.62;6.31;;;;;;;11.22;44.24;99893.09;338685;118;1962028;-71
2021/05/11 03:19:52;;;;;;;12.29;5.57;;;;;;;11.20;44.29;99900.56;340113;119;1963072;-72
2021/05/11 03:20:58;;;;;;;12.30;5.94;;;;;;;11.21;44.48;99891.41;339399;119;1963006;-73
2021/05/11 03:22:04;;;;;;;11.91;6.40;;;;;;;11.21;44.45;99903.05;290363;119;2795007;-72
2021/05/11 03:23:09;;;;;;;11.88;5.83;;;;;;;11.21;44.53;99902.22;319085;118;1961989;-72
2021/05/11 03:24:15;;;;;;;13.16;6.57;;;;;;;11.19;44.49;99901.58;338295;119;1961980;-73
2021/05/11 03:25:21;;;;;;;13.71;7.57;;;;;;;11.19;44.70;99906.98;340093;117;1962037;-72
2021/05/11 03:26:27;;;;;;;11.24;5.47;;;;;;;11.19;44.92;99906.98;331477;120;1961967;-72
2021/05/11 03:27:33;;;;;;;9.97;5.49;;;;;;;11.19;45.05;99898.88;287133;124;2675956;-71
2021/05/11 03:28:39;;;;;;;12.78;6.18;;;;;;;10.70;44.70;99825.15;307068;121;1965020;-71
2021/05/11 03:29:45;;;;;;;15.72;6.99;;;;;;;11.18;44.70;99906.16;332445;121;1962012;-70
2021/05/11 03:30:50;;;;;;;9.76;4.94;;;;;;;11.19;44.75;99905.14;333224;121;1963543;-71
2021/05/11 03:31:56;;;;;;;11.23;5.63;;;;;;;11.20;44.62;99906.80;333709;120;1962974;-72
2021/05/11 03:33:02;;;;;;;13.15;6.14;;;;;;;11.21;44.62;99900.34;338901;119;1961976;-73
2021/05/11 03:34:08;;;;;;;9.28;5.16;;;;;;;11.23;44.71;99905.55;297912;118;2719023;-72
2021/05/11 03:35:13;;;;;;;13.17;6.26;;;;;;;11.24;44.68;99904.51;319091;119;1961947;-72
2021/05/11 03:36:19;;;;;;;10.18;5.39;;;;;;;11.28;44.46;99904.95;332122;120;1962146;-72
2021/05/11 03:37:24;;;;;;;11.53;5.18;;;;;;;11.32;44.38;99904.31;332542;120;1964004;-72
2021/05/11 03:38:29;;;;;;;11.44;4.76;;;;;;;11.34;44.31;99894.13;338228;118;1961921;-72
2021/05/11 03:39:39;;;;;;;11.03;5.18;;;;;;;11.37;44.19;99901.00;339182;120;1962112;-73
2021/05/11 03:40:45;;;;;;;11.67;5.10;;;;;;;11.41;44.13;99899.56;338251;120;1962003;-71
2021/05/11 03:41:58;;;;;;;9.42;4.96;;;;;;;11.43;44.15;99900.17;333376;121;1964028;-72
2021/05/11 03:43:06;;;;;;;11.21;4.33;;;;;;;11.47;44.07;99892.50;295517;118;2791061;-71
2021/05/11 03:44:12;;;;;;;11.86;5.24;;;;;;;11.48;44.05;99894.98;339907;117;1962011;-72
2021/05/11 03:45:29;;;;;;;13.37;5.43;;;;;;;11.64;44.41;99900.02;385957;106;1986960;-74
2021/05/11 03:46:33;;;;;;;9.79;5.02;;;;;;;11.53;44.26;99894.37;344220;108;2401946;-73
2021/05/11 03:47:51;;;;;;;8.33;4.29;;;;;;;11.69;44.02;99901.25;377023;106;2979963;-71
2021/05/11 03:48:56;;;;;;;9.80;4.66;;;;;;;11.60;43.84;99887.92;339354;109;1961995;-71
2021/05/11 03:50:28;;;;;;;9.17;4.02;;;;;;;11.77;43.83;99888.33;419877;99;1986809;-72
2021/05/11 03:51:35;;;;;;;13.94;5.65;;;;;;;11.69;43.64;99893.95;396270;101;1960920;-72
2021/05/11 03:53:01;;;;;;;10.69;5.07;;;;;;;11.72;43.73;99890.83;393102;101;1960737;-71
2021/05/11 03:54:08;;;;;;;10.81;5.26;;;;;;;11.75;44.13;99887.73;391294;102;1960904;-71
2021/05/11 03:55:13;;;;;;;12.31;5.92;;;;;;;11.80;43.57;99892.50;389043;103;1960896;-73
2021/05/11 03:56:20;;;;;;;14.90;5.75;;;;;;;11.83;43.75;99889.41;340701;103;2748971;-71
2021/05/11 03:57:32;;;;;;;13.10;6.54;;;;;;;11.97;44.03;99898.38;389692;104;2071952;-73
2021/05/11 03:58:39;;;;;;;11.31;5.68;;;;;;;11.90;43.85;99898.36;377621;106;1962109;-72
2021/05/11 03:59:57;;;;;;;15.49;6.35;;;;;;;12.05;44.15;99890.03;391670;106;1986970;-71
2021/05/11 04:01:02;;;;;;;14.39;6.12;;;;;;;11.92;44.02;99893.58;376695;107;1961951;-71
2021/05/11 04:02:18;;;;;;;10.58;5.82;;;;;;;12.07;44.00;99893.38;395358;104;2002995;-72
2021/05/11 04:03:25;;;;;;;15.69;6.32;;;;;;;11.98;44.03;99898.14;327957;105;2781938;-72
2021/05/11 04:04:32;;;;;;;10.57;5.53;;;;;;;12.01;43.82;99897.75;370767;109;1961920;-72
2021/05/11 04:05:46;;;;;;;10.79;6.40;;;;;;;12.16;43.90;99897.52;369235;104;2381034;-71
2021/05/11 04:06:52;;;;;;;11.99;6.25;;;;;;;12.07;44.11;99901.50;373985;107;1962965;-72
2021/05/11 04:08:04;;;;;;;13.10;6.67;;;;;;;12.21;44.17;99902.30;361694;108;2278003;-72
2021/05/11 04:09:27;;;;;;;15.47;6.79;;;;;;;12.13;44.09;99911.48;358237;110;1963951;-72
2021/05/11 04:11:00;;;;;;;14.78;6.64;;;;;;;12.15;44.12;99912.11;350923;114;1963007;-72
2021/05/11 04:16:32;;;;;;;10.22;5.17;;;;;;;12.32;43.55;99910.60;379083;105;1962014;-73
2021/05/11 04:17:45;;;;;;;13.84;5.69;;;;;;;12.49;43.72;99912.85;395283;104;1986984;-72
2021/05/11 04:18:52;;;;;;;17.38;6.98;;;;;;;12.42;43.51;99903.93;374325;107;1962091;-72
2021/05/11 04:19:58;;;;;;;14.60;5.60;;;;;;;12.44;43.75;99910.80;329626;106;2803964;-73
2021/05/11 04:21:04;;;;;;;19.63;6.45;;;;;;;12.50;43.62;99914.54;379127;106;1961943;-72
2021/05/11 04:22:10;;;;;;;20.11;7.34;;;;;;;12.53;43.62;99906.80;378624;106;1962046;-71
2021/05/11 04:23:22;;;;;;;15.14;6.83;;;;;;;12.69;43.64;99902.80;393630;104;1987980;-72
2021/05/11 04:24:28;;;;;;;13.88;6.01;;;;;;;12.63;43.42;99909.08;337397;107;1961974;-71
2021/05/11 04:25:41;;;;;;;16.82;7.23;;;;;;;12.82;43.10;99909.23;387695;106;1961971;-73
2021/05/11 04:26:47;;;;;;;14.46;5.91;;;;;;;12.73;43.01;99914.06;303657;109;2220610;-71
2021/05/11 04:28:11;;;;;;;15.31;5.94;;;;;;;12.78;42.93;99910.69;365312;107;1961933;-72
2021/05/11 04:29:23;;;;;;;14.63;4.66;;;;;;;12.96;42.64;99911.64;399883;103;1986962;-70
2021/05/11 04:30:29;;;;;;;12.29;5.06;;;;;;;12.86;42.28;99908.59;375120;105;1961953;-72
2021/05/11 04:31:37;;;;;;;12.61;5.49;;;;;;;12.92;41.93;99909.61;373553;105;1963909;-73
2021/05/11 04:32:42;;;;;;;13.55;5.05;;;;;;;12.98;41.80;99906.84;341675;105;1962009;-73
2021/05/11 04:33:47;;;;;;;24.92;8.47;;;;;;;13.04;41.67;99909.75;358909;105;1961988;-73
2021/05/11 04:34:53;;;;;;;17.25;6.69;;;;;;;13.07;41.57;99912.02;363637;110;1964035;-73
2021/05/11 04:36:07;;;;;;;15.09;5.82;;;;;;;13.25;41.32;99911.30;393776;104;1987006;-75
2021/05/11 04:37:13;;;;;;;12.56;5.59;;;;;;;13.19;41.29;99910.30;375425;106;1962008;-73
2021/05/11 04:38:26;;;;;;;14.63;5.67;;;;;;;13.36;41.15;99903.36;393959;104;1985916;-72
2021/05/11 04:39:31;;;;;;;11.93;4.99;;;;;;;13.30;41.05;99908.80;336258;106;1961878;-72
2021/05/11 04:40:49;;;;;;;13.87;5.96;;;;;;;13.46;40.90;99902.86;393801;104;1985950;-72
2021/05/11 04:41:55;;;;;;;17.01;6.14;;;;;;;13.41;40.77;99906.22;375746;105;1962910;-72
2021/05/11 04:43:28;;;;;;;13.07;5.40;;;;;;;13.59;40.32;99891.91;414232;98;1985787;-74
2021/05/11 04:44:35;;;;;;;15.52;5.48;;;;;;;13.53;40.31;99900.94;398367;101;1961910;-72
2021/05/11 04:47:29;;;;;;;15.03;5.63;;;;;;;13.64;40.14;99894.80;386718;101;1963984;-72
2021/05/11 04:48:30;;;;;;;11.49;4.14;;;;;;;13.70;39.93;99894.97;329317;106;2678962;-73
2021/05/11 04:49:36;;;;;;;11.84;5.31;;;;;;;13.76;39.83;99903.08;361401;108;1963916;-73
2021/05/11 04:50:48;;;;;;;13.21;4.78;;;;;;;13.92;39.70;99896.26;386285;106;1986035;-73
2021/05/11 04:51:54;;;;;;;13.20;6.06;;;;;;;13.87;39.75;99897.98;370739;108;1966023;-73
2021/05/11 04:53:01;;;;;;;19.68;6.01;;;;;;;13.91;39.60;99891.86;324573;108;2721991;-73
2021/05/11 04:54:06;;;;;;;15.56;6.93;;;;;;;13.96;39.67;99891.20;360517;109;1962914;-72
2021/05/11 04:55:19;;;;;;;13.97;4.61;;;;;;;14.15;39.29;99892.06;387740;105;1986958;-73
2021/05/11 04:56:25;;;;;;;13.66;4.73;;;;;;;14.07;39.20;99899.44;327248;105;2391024;-72
2021/05/11 04:57:37;;;;;;;13.03;4.68;;;;;;;14.27;38.46;99899.27;394365;104;2071972;-72
2021/05/11 04:58:44;;;;;;;13.75;4.26;;;;;;;14.18;38.31;99892.44;379044;105;1962990;-72
2021/05/11 05:00:01;;;;;;;14.02;5.65;;;;;;;14.35;37.80;99894.60;385891;106;1986023;-72
2021/05/11 05:01:06;;;;;;;13.07;4.77;;;;;;;14.28;37.89;99900.91;339308;106;2418883;-72
2021/05/11 05:02:11;;;;;;;12.23;4.61;;;;;;;14.33;37.52;99889.38;360010;112;1961958;-74
2021/05/11 05:03:24;;;;;;;10.48;3.52;;;;;;;14.37;37.10;99890.60;357509;111;1962960;-72
2021/05/11 05:04:33;;;;;;;11.11;4.65;;;;;;;14.52;36.75;99884.78;399697;104;1986982;-72
2021/05/11 05:05:39;;;;;;;11.94;4.62;;;;;;;14.44;36.77;99890.52;375373;108;1961916;-72
2021/05/11 05:07:11;;;;;;;8.69;4.13;;;;;;;14.62;36.40;99887.01;399591;103;1985940;-73
2021/05/11 05:08:16;;;;;;;9.78;4.18;;;;;;;14.55;36.57;99888.96;380671;105;1962035;-73
2021/05/11 05:09:40;;;;;;;9.47;3.94;;;;;;;14.58;36.38;99891.22;340419;107;1963007;-73
2021/05/11 05:10:45;;;;;;;9.82;3.84;;;;;;;14.62;36.18;99890.55;374140;107;1961968;-73
2021/05/11 05:11:51;;;;;;;9.81;3.14;;;;;;;14.66;35.40;99886.34;372648;107;1962970;-72
2021/05/11 05:13:03;;;;;;;11.67;5.01;;;;;;;14.82;35.69;99884.03;379951;104;3021968;-72
2021/05/11 05:14:10;;;;;;;7.17;3.56;;;;;;;14.73;35.05;99887.06;334424;107;2600998;-72
2021/05/11 05:15:16;;;;;;;9.20;3.12;;;;;;;14.77;34.78;99886.64;368831;107;1962013;-72
2021/05/11 05:16:22;;;;;;;10.59;3.74;;;;;;;14.81;34.79;99893.27;368735;109;1962001;-72
2021/05/11 05:17:28;;;;;;;15.52;5.24;;;;;;;14.85;34.81;99891.77;371641;108;1962821;-72
2021/05/11 05:18:40;;;;;;;10.41;3.42;;;;;;;15.02;34.69;99889.23;393061;104;1962064;-73
2021/05/11 05:19:45;;;;;;;6.39;2.87;;;;;;;14.94;34.10;99888.48;370916;108;1962010;-72
2021/05/11 05:20:52;;;;;;;7.86;3.21;;;;;;;14.99;34.02;99892.42;370627;107;1962903;-72
2021/05/11 05:21:59;;;;;;;9.86;3.16;;;;;;;15.01;33.94;99885.69;370839;103;1959692;-74
2021/05/11 05:23:11;;;;;;;9.32;2.92;;;;;;;15.17;33.55;99893.20;396911;103;1984743;-73
2021/05/11 05:24:22;;;;;;;13.58;3.70;;;;;;;15.10;33.61;99886.19;375049;106;1961942;-73
2021/05/11 05:25:34;;;;;;;11.33;4.35;;;;;;;15.26;33.34;99885.54;387120;106;2002926;-74
2021/05/11 05:26:52;;;;;;;14.99;5.27;;;;;;;15.18;33.21;99881.25;367055;108;1962016;-74
2021/05/11 05:28:00;;;;;;;11.95;5.37;;;;;;;15.24;33.06;99882.24;353619;113;1961892;-73
2021/05/11 05:29:05;;;;;;;9.59;3.37;;;;;;;15.28;32.93;99880.70;354058;113;1961125;-73
2021/05/11 05:30:13;;;;;;;7.83;3.61;;;;;;;15.34;32.76;99882.48;352301;114;1962020;-74
2021/05/11 05:31:19;;;;;;;17.45;6.26;;;;;;;15.40;32.73;99878.03;325456;114;2339983;-73
2021/05/11 05:32:24;;;;;;;9.87;3.07;;;;;;;15.44;32.50;99875.66;320389;113;1964038;-73
2021/05/11 05:33:47;;;;;;;10.32;4.42;;;;;;;15.58;31.64;99880.66;375830;108;2072036;-73
2021/05/11 05:34:53;;;;;;;9.30;3.92;;;;;;;15.50;32.12;99880.99;356168;113;1964040;-73
2021/05/11 05:35:59;;;;;;;8.68;3.48;;;;;;;15.54;32.06;99873.20;315581;110;2755966;-73
2021/05/11 05:37:42;;;;;;;9.21;3.87;;;;;;;15.74;31.70;99867.45;396934;103;1982021;-72
2021/05/11 05:38:49;;;;;;;15.24;9.08;;;;;;;15.69;32.01;99876.36;369347;108;1961974;-73
2021/05/11 05:39:59;;;;;;;11.15;5.76;;;;;;;15.75;32.00;99872.69;347760;107;1960950;-73
2021/05/11 05:41:05;;;;;;;8.89;3.16;;;;;;;15.79;31.22;99873.03;367737;107;1961038;-73
2021/05/11 05:42:16;;;;;;;14.19;5.19;;;;;;;15.95;31.35;99868.78;398246;104;1985965;-73
2021/05/11 05:43:22;;;;;;;10.96;5.31;;;;;;;15.87;31.62;99869.14;373262;107;1960947;-73
2021/05/11 05:44:43;;;;;;;11.44;3.98;;;;;;;16.06;31.67;99870.67;328340;106;2214804;-74
2021/05/11 05:45:52;;;;;;;15.51;5.55;;;;;;;15.98;30.63;99866.44;342378;109;2402115;-73
2021/05/11 05:47:14;;;;;;;9.13;3.12;;;;;;;16.03;30.76;99871.16;318698;110;1989831;-72
2021/05/11 05:48:29;;;;;;;11.43;4.19;;;;;;;16.20;30.28;99868.56;349329;106;2535016;-74
2021/05/11 05:50:58;;;;;;;7.30;2.73;;;;;;;16.28;30.00;99860.02;401550;103;1986026;-74
2021/05/11 05:52:05;;;;;;;11.26;2.93;;;;;;;16.20;30.28;99868.56;376982;106;1962015;-73
2021/05/11 05:53:15;;;;;;;8.88;3.00;;;;;;;16.25;29.90;99872.23;374684;107;1963094;-73
2021/05/11 05:54:20;;;;;;;6.78;3.23;;;;;;;16.30;29.83;99865.21;370033;107;1962000;-73
2021/05/11 05:55:33;;;;;;;12.20;4.84;;;;;;;16.45;29.70;99860.92;392180;104;1985777;-74
2021/05/11 05:56:49;;;;;;;6.68;3.05;;;;;;;16.41;29.83;99858.94;346779;106;2424873;-74
2021/05/11 05:58:00;;;;;;;11.25;3.00;;;;;;;16.44;29.77;99867.45;371155;106;1961971;-73
2021/05/11 05:59:16;;;;;;;12.21;3.83;;;;;;;16.53;29.91;99861.63;360839;111;1961916;-73
2021/05/11 06:00:25;;;;;;;6.37;2.49;;;;;;;16.58;30.04;99865.30;365394;109;1961981;-73
2021/05/11 06:01:40;;;;;;;9.14;3.95;;;;;;;16.75;29.55;99862.66;379639;106;2981939;-73
2021/05/11 06:02:48;;;;;;;7.69;3.76;;;;;;;16.69;29.89;99858.15;366220;109;1960981;-74
2021/05/11 06:04:12;;;;;;;19.79;4.79;;;;;;;16.75;29.80;99859.08;363880;109;1961982;-73
2021/05/11 06:05:28;;;;;;;12.47;3.38;;;;;;;16.92;29.75;99858.11;380685;108;1986052;-74
2021/05/11 06:06:35;;;;;;;7.47;3.07;;;;;;;16.86;29.40;99861.00;331161;109;1961951;-73